createdAt,value
2018-06-04T00:01:03.905Z,79.64
2018-06-04T00:02:13.727Z,79.25
2018-06-04T00:03:23.815Z,79.44
2018-06-04T00:04:33.901Z,79.83
2018-06-04T00:05:44.023Z,79.35
2018-06-04T00:06:54.097Z,79.74
2018-06-04T00:08:04.169Z,79.6
2018-06-04T00:09:14.280Z,79.93
2018-06-04T00:10:24.085Z,79.54
2018-06-04T00:11:33.905Z,79.89
2018-06-04T00:12:43.976Z,79.6
2018-06-04T00:13:54.055Z,79.79
2018-06-04T00:15:04.145Z,79.6
2018-06-04T00:16:13.965Z,79.69
2018-06-04T00:17:23.568Z,79.6
2018-06-04T00:18:33.643Z,79.11
2018-06-04T00:19:43.457Z,79.02
2018-06-04T00:20:53.285Z,79.79
2018-06-04T00:22:03.363Z,79.11
2018-06-04T00:23:13.445Z,79.98
2018-06-04T00:24:23.293Z,79.02
2018-06-04T00:25:33.367Z,79.02
2018-06-04T00:26:43.448Z,79.5
2018-06-04T00:27:53.536Z,79.6
2018-06-04T00:29:03.634Z,79.5
2018-06-04T00:30:13.731Z,79.31
2018-06-04T00:31:23.824Z,79.69
2018-06-04T00:32:33.899Z,79.31
2018-06-04T00:33:43.722Z,79.5
2018-06-04T00:34:53.816Z,79.5
2018-06-04T00:36:03.891Z,79.41
2018-06-04T00:37:13.730Z,79.5
2018-06-04T00:38:23.804Z,79.41
2018-06-04T00:39:33.902Z,79.11
2018-06-04T00:40:43.723Z,79.41
2018-06-04T00:41:53.818Z,79.5
2018-06-04T00:43:03.623Z,79.41
2018-06-04T00:44:13.168Z,79.41
2018-06-04T00:45:23.230Z,79.41
2018-06-04T00:46:33.360Z,79.41
2018-06-04T00:47:43.441Z,78.83
2018-06-04T00:48:53.508Z,79.5
2018-06-04T00:50:03.622Z,79.5
2018-06-04T00:51:13.717Z,79.5
2018-06-04T00:52:23.780Z,79.89
2018-06-04T00:53:33.597Z,79.89
2018-06-04T00:54:43.673Z,79.6
2018-06-04T00:55:53.748Z,78.83
2018-06-04T00:57:03.829Z,78.92
2018-06-04T00:58:13.663Z,79.21
2018-06-04T00:59:23.476Z,79.21
2018-06-04T01:00:33.566Z,79.02
2018-06-04T01:01:43.655Z,79.5
2018-06-04T01:02:53.745Z,79.5
2018-06-04T01:04:03.546Z,79.41
2018-06-04T01:05:13.365Z,79.02
2018-06-04T01:06:23.447Z,79.98
2018-06-04T01:07:33.523Z,78.92
2018-06-04T01:08:43.595Z,79.69
2018-06-04T01:09:53.667Z,79.41
2018-06-04T01:11:03.718Z,79.5
2018-06-04T01:12:13.537Z,79.41
2018-06-04T01:13:23.640Z,79.6
2018-06-04T01:14:33.720Z,79.69
2018-06-04T01:15:43.812Z,79.41
2018-06-04T01:16:53.897Z,79.31
2018-06-04T01:18:03.973Z,79.21
2018-06-04T01:19:13.538Z,79.41
2018-06-04T01:20:23.621Z,79.5
2018-06-04T01:21:33.442Z,79.31
2018-06-04T01:22:43.538Z,79.31
2018-06-04T01:23:53.358Z,79.31
2018-06-04T01:25:03.451Z,79.6
2018-06-04T01:26:13.530Z,79.21
2018-06-04T01:27:23.626Z,79.31
2018-06-04T01:28:33.702Z,78.92
2018-06-04T01:29:43.791Z,79.79
2018-06-04T01:30:53.878Z,79.21
2018-06-04T01:32:03.965Z,79.69
2018-06-04T01:33:14.097Z,79.31
2018-06-04T01:34:23.913Z,79.6
2018-06-04T01:35:33.985Z,79.69
2018-06-04T01:36:44.052Z,79.69
2018-06-04T01:37:54.141Z,79.79
2018-06-04T01:39:04.209Z,79.69
2018-06-04T01:40:14.528Z,79.89
2018-06-04T01:41:24.333Z,79.98
2018-06-04T01:42:34.405Z,79.69
2018-06-04T01:43:44.486Z,79.79
2018-06-04T01:44:54.560Z,79.6
2018-06-04T01:46:04.661Z,79.89
2018-06-04T01:47:14.785Z,79.5
2018-06-04T01:48:24.870Z,79.69
2018-06-04T01:49:34.957Z,79.98
2018-06-04T01:50:45.079Z,79.5
2018-06-04T01:51:55.159Z,79.6
2018-06-04T01:53:04.987Z,79.75
2018-06-04T01:54:14.538Z,79.79
2018-06-04T01:55:24.635Z,79.79
2018-06-04T01:56:34.433Z,79.89
2018-06-04T01:57:44.507Z,79.79
2018-06-04T01:58:54.588Z,79.98
2018-06-04T02:00:04.664Z,79.6
2018-06-04T02:01:14.739Z,79.5
2018-06-04T02:02:24.884Z,79.56
2018-06-04T02:03:34.966Z,79.75
2018-06-04T02:04:44.778Z,79.69
2018-06-04T02:05:54.880Z,79.66
2018-06-04T02:07:04.959Z,79.66
2018-06-04T02:08:15.033Z,79.56
2018-06-04T02:09:25.112Z,79.56
2018-06-04T02:10:35.200Z,79.56
2018-06-04T02:11:45.290Z,79.56
2018-06-04T02:12:55.351Z,79.46
2018-06-04T02:14:05.154Z,79.56
2018-06-04T02:15:15.227Z,79.66
2018-06-04T02:16:25.036Z,79.56
2018-06-04T02:17:35.112Z,79.46
2018-06-04T02:18:45.192Z,79.46
2018-06-04T02:19:55.002Z,79.56
2018-06-04T02:21:05.061Z,79.46
2018-06-04T02:22:14.882Z,79.66
2018-06-04T02:23:24.693Z,80.04
2018-06-04T02:24:34.270Z,80.04
2018-06-04T02:25:44.360Z,79.75
2018-06-04T02:26:54.170Z,79.94
2018-06-04T02:28:03.998Z,80.14
2018-06-04T02:29:14.093Z,80.14
2018-06-04T02:30:24.182Z,80.04
2018-06-04T02:31:34.008Z,80.14
2018-06-04T02:32:44.087Z,80.14
2018-06-04T02:33:54.174Z,79.94
2018-06-04T02:35:04.017Z,80.14
2018-06-04T02:36:14.091Z,79.94
2018-06-04T02:37:23.916Z,79.94
2018-06-04T02:38:34.010Z,79.52
2018-06-04T02:39:43.856Z,79.56
2018-06-04T02:40:53.946Z,79.46
2018-06-04T02:42:04.049Z,79.36
2018-06-04T02:43:14.122Z,79.46
2018-06-04T02:44:24.207Z,79.66
2018-06-04T02:45:34.318Z,79.85
2018-06-04T02:46:44.399Z,79.66
2018-06-04T02:47:54.513Z,79.56
2018-06-04T02:49:04.652Z,79.46
2018-06-04T02:50:14.876Z,79.17
2018-06-04T02:51:25.073Z,79.66
2018-06-04T02:52:35.169Z,79.46
2018-06-04T02:53:45.249Z,79.08
2018-06-04T02:54:54.820Z,79.75
2018-06-04T02:56:04.934Z,79.85
2018-06-04T02:57:14.506Z,79.66
2018-06-04T02:58:24.765Z,79.85
2018-06-04T02:59:35.088Z,79.46
2018-06-04T03:00:45.185Z,79.56
2018-06-04T03:01:55.266Z,79.66
2018-06-04T03:03:05.381Z,79.66
2018-06-04T03:35:04.222Z,73.06
2018-06-04T03:36:14.304Z,73.54
2018-06-04T03:37:24.380Z,74.4
2018-06-04T03:38:34.445Z,74.98
2018-06-04T03:39:44.517Z,75.46
2018-06-04T03:40:54.591Z,76.04
2018-06-04T03:42:04.671Z,76.75
2018-06-04T03:43:14.774Z,76.94
2018-06-04T03:44:24.855Z,77.51
2018-06-04T03:45:34.935Z,77.75
2018-06-04T03:46:45.009Z,77.46
2018-06-04T03:47:55.095Z,77.94
2018-06-04T03:49:05.187Z,78.03
2018-06-04T03:50:15.284Z,77.98
2018-06-04T03:51:25.355Z,78.11
2018-06-04T03:52:35.439Z,77.92
2018-06-04T03:53:45.522Z,78.11
2018-06-04T03:54:55.595Z,78.15
2018-06-04T03:56:05.664Z,78.25
2018-06-04T03:57:14.973Z,77.96
2018-06-04T03:58:25.132Z,78.06
2018-06-04T03:59:34.964Z,78.09
2018-06-04T04:00:45.035Z,77.81
2018-06-04T04:01:55.196Z,77.9
2018-06-04T04:03:05.280Z,77.94
2018-06-04T04:04:15.411Z,77.84
2018-06-04T04:05:25.501Z,77.46
2018-06-04T04:06:35.571Z,77.69
2018-06-04T04:07:45.644Z,77.59
2018-06-04T04:08:55.739Z,77.69
2018-06-04T04:10:05.865Z,77.78
2018-06-04T04:11:15.955Z,77.44
2018-06-04T04:12:26.041Z,77.63
2018-06-04T04:13:35.847Z,77.44
2018-06-04T04:14:45.656Z,77.28
2018-06-04T04:15:55.824Z,77.48
2018-06-04T04:17:05.910Z,77
2018-06-04T04:18:15.973Z,76.7
2018-06-04T04:19:26.102Z,74.46
2018-06-04T04:20:36.200Z,73.15
2018-06-04T04:21:46.295Z,70.83
2018-06-04T04:22:56.382Z,70.06
2018-06-04T04:24:06.215Z,69.26
2018-06-04T04:25:16.295Z,69.03
2018-06-04T04:26:26.117Z,68.55
2018-06-04T04:27:36.004Z,68.97
2018-06-04T04:28:46.273Z,68.07
2018-06-04T04:29:56.079Z,67.93
2018-06-04T04:31:06.154Z,68.1
2018-06-04T04:32:16.245Z,68.13
2018-06-04T04:33:26.077Z,67.77
2018-06-04T04:34:36.158Z,67.9
2018-06-04T04:35:46.237Z,68.13
2018-06-04T04:36:56.298Z,68.26
2018-06-04T04:38:06.419Z,67.97
2018-06-04T04:39:16.501Z,68.2
2018-06-04T04:40:26.603Z,68.23
2018-06-04T04:41:36.690Z,68.13
2018-06-04T04:42:46.786Z,67.97
2018-06-04T04:43:56.873Z,68.17
2018-06-04T04:45:06.949Z,68.4
2018-06-04T04:46:17.027Z,68.3
2018-06-04T04:47:26.850Z,68.4
2018-06-04T04:48:36.929Z,68.79
2018-06-04T04:49:47.011Z,68.99
2018-06-04T04:50:57.172Z,69.18
2018-06-04T04:52:07.271Z,68.79
2018-06-04T04:53:17.371Z,69.28
2018-06-04T04:54:27.456Z,68.69
2018-06-04T04:55:37.553Z,69.18
2018-06-04T04:56:47.652Z,69.18
2018-06-04T04:57:57.233Z,68.92
2018-06-04T04:59:07.080Z,69.12
2018-06-04T05:00:16.643Z,68.92
2018-06-04T05:01:26.469Z,69.02
2018-06-04T05:02:36.550Z,69.22
2018-06-04T05:03:46.361Z,68.82
2018-06-04T05:04:56.194Z,69.02
2018-06-04T05:06:06.291Z,68.92
2018-06-04T05:07:16.138Z,68.92
2018-06-04T05:08:26.283Z,68.73
2018-06-04T05:09:36.423Z,68.92
2018-06-04T05:10:46.499Z,68.63
2018-06-04T05:11:56.589Z,69.02
2018-06-04T05:13:06.709Z,69.48
2018-06-04T05:14:16.598Z,69.78
2018-06-04T05:15:26.688Z,69.54
2018-06-04T05:16:36.755Z,69.54
2018-06-04T05:17:46.829Z,69.35
2018-06-04T05:18:56.921Z,69.35
2018-06-04T05:20:07.010Z,69.74
2018-06-04T05:21:17.115Z,69.71
2018-06-04T05:22:27.203Z,69.45
2018-06-04T05:23:37.302Z,69.71
2018-06-04T05:24:47.371Z,69.35
2018-06-04T05:25:57.437Z,69.45
2018-06-04T05:27:07.536Z,69.64
2018-06-04T05:28:16.860Z,69.54
2018-06-04T05:29:26.684Z,69.05
2018-06-04T05:30:36.503Z,69.54
2018-06-04T05:31:46.647Z,69.84
2018-06-04T05:32:57.184Z,69.64
2018-06-04T05:34:06.994Z,69.05
2018-06-04T05:35:16.833Z,69.54
2018-06-04T05:36:26.661Z,69.35
2018-06-04T05:37:36.765Z,69.05
2018-06-04T05:38:46.855Z,69.54
2018-06-04T05:39:56.954Z,68.95
2018-06-04T05:41:07.093Z,68.56
2018-06-04T05:42:17.768Z,69.25
2018-06-04T05:43:27.409Z,69.05
2018-06-04T05:44:37.244Z,68.95
2018-06-04T05:45:47.329Z,68.66
2018-06-04T05:46:57.407Z,68.85
2018-06-04T05:48:07.513Z,69.54
2018-06-04T05:49:17.653Z,68.76
2018-06-04T05:50:27.740Z,69.05
2018-06-04T05:51:37.045Z,69.02
2018-06-04T05:52:47.125Z,69.51
2018-06-04T05:53:56.954Z,69.21
2018-06-04T05:55:06.780Z,69.71
2018-06-04T05:56:17.046Z,69.41
2018-06-04T05:57:27.347Z,69.41
2018-06-04T05:58:37.155Z,69.51
2018-06-04T05:59:46.984Z,69.51
2018-06-04T06:00:56.822Z,69.41
2018-06-04T06:02:06.924Z,69.38
2018-06-04T06:03:17.024Z,69.6
2018-06-04T06:04:27.112Z,70
2018-06-04T06:05:37.179Z,70.1
2018-06-04T06:06:47.277Z,69.77
2018-06-04T06:07:57.349Z,69.67
2018-06-04T06:09:07.529Z,69.71
2018-06-04T06:10:17.811Z,70.16
2018-06-04T06:11:27.626Z,70.46
2018-06-04T06:12:37.724Z,70.16
2018-06-04T06:13:47.811Z,70.56
2018-06-04T06:14:57.883Z,71.24
2018-06-04T06:16:07.985Z,70.65
2018-06-04T06:17:17.811Z,70.65
2018-06-04T06:18:27.896Z,70.62
2018-06-04T06:19:37.707Z,70.91
2018-06-04T06:20:47.540Z,71.01
2018-06-04T06:21:57.358Z,70.52
2018-06-04T06:23:07.448Z,70.62
2018-06-04T06:24:17.600Z,71.31
2018-06-04T06:25:27.835Z,71.11
2018-06-04T06:26:37.991Z,71.56
2018-06-04T06:27:47.840Z,71.47
2018-06-04T06:28:57.913Z,71.47
2018-06-04T06:30:08.081Z,71.47
2018-06-04T06:31:18.171Z,71.66
2018-06-04T06:32:28.244Z,71.62
2018-06-04T06:33:38.100Z,72.22
2018-06-04T06:34:47.927Z,72.08
2018-06-04T06:35:58.001Z,72.08
2018-06-04T06:37:08.104Z,72.08
2018-06-04T06:38:18.191Z,72.38
2018-06-04T06:39:28.282Z,72.77
2018-06-04T06:40:38.130Z,72.63
2018-06-04T06:41:48.205Z,72.83
2018-06-04T06:42:57.806Z,72.89
2018-06-04T06:44:07.626Z,72.89
2018-06-04T06:45:17.447Z,73.25
2018-06-04T06:46:27.547Z,72.7
2018-06-04T06:47:37.375Z,73.15
2018-06-04T06:48:47.467Z,73.41
2018-06-04T06:49:57.540Z,73.54
2018-06-04T06:51:07.632Z,73.9
2018-06-04T06:52:17.716Z,73.99
2018-06-04T06:53:27.803Z,73.5
2018-06-04T06:54:37.650Z,73.8
2018-06-04T06:55:47.736Z,74.09
2018-06-04T06:56:57.574Z,74.19
2018-06-04T06:58:07.651Z,74.54
2018-06-04T06:59:17.743Z,74.44
2018-06-04T07:00:27.866Z,74.15
2018-06-04T07:01:37.693Z,74.84
2018-06-04T07:02:47.519Z,74.93
2018-06-04T07:03:57.355Z,74.8
2018-06-04T07:05:07.460Z,74.32
2018-06-04T07:06:17.552Z,74.71
2018-06-04T07:07:27.664Z,74.12
2018-06-04T07:08:37.910Z,74.41
2018-06-04T07:09:47.997Z,75.2
2018-06-04T07:10:57.860Z,74.87
2018-06-04T07:12:07.942Z,75.35
2018-06-04T07:13:17.779Z,75.6
2018-06-04T07:14:27.430Z,75.8
2018-06-04T07:15:37.702Z,75.7
2018-06-04T07:16:47.794Z,75.76
2018-06-04T07:17:57.901Z,75.57
2018-06-04T07:19:07.739Z,75.47
2018-06-04T07:20:17.837Z,75.67
2018-06-04T07:21:27.182Z,75.47
2018-06-04T07:22:37.472Z,75.67
2018-06-04T07:23:47.557Z,75.96
2018-06-04T07:24:57.638Z,75.37
2018-06-04T07:26:07.448Z,75.37
2018-06-04T07:27:17.529Z,75.57
2018-06-04T07:28:27.667Z,75.57
2018-06-04T07:29:37.482Z,75.37
2018-06-04T07:30:47.560Z,75.57
2018-06-04T07:31:57.641Z,75.86
2018-06-04T07:33:07.729Z,75.86
2018-06-04T07:34:17.835Z,75.96
2018-06-04T07:35:27.927Z,75.86
2018-06-04T07:36:37.750Z,75.76
2018-06-04T07:37:47.850Z,75.57
2018-06-04T07:38:57.960Z,75.37
2018-06-04T07:40:08.046Z,75.57
2018-06-04T07:41:17.974Z,75.57
2018-06-04T07:42:28.266Z,75.47
2018-06-04T07:43:38.338Z,75.96
2018-06-04T07:44:48.160Z,75.86
2018-06-04T07:45:58.313Z,75.76
2018-06-04T07:47:08.130Z,75.31
2018-06-04T07:48:18.259Z,75.31
2018-06-04T07:49:28.099Z,75.21
2018-06-04T07:50:38.189Z,75.02
2018-06-04T07:51:48.315Z,75.31
2018-06-04T07:52:58.467Z,75.31
2018-06-04T07:54:08.285Z,75.12
2018-06-04T07:55:18.376Z,75.21
2018-06-04T07:56:28.485Z,75.41
2018-06-04T07:57:38.619Z,75.41
2018-06-04T07:58:48.440Z,75.41
2018-06-04T07:59:58.527Z,75.41
2018-06-04T08:01:08.619Z,75.15
2018-06-04T08:02:18.696Z,75.15
2018-06-04T08:03:28.793Z,75.25
2018-06-04T08:04:38.876Z,75.49
2018-06-04T08:05:48.716Z,75.1
2018-06-04T08:06:58.801Z,74.8
2018-06-04T08:08:08.901Z,74.8
2018-06-04T08:09:18.983Z,74.51
2018-06-04T08:10:29.072Z,74.8
2018-06-04T08:11:39.161Z,74.9
2018-06-04T08:12:49.277Z,75
2018-06-04T08:13:59.359Z,74.51
2018-06-04T08:15:09.466Z,75
2018-06-04T08:16:19.549Z,74.61
2018-06-04T08:17:29.644Z,74.8
2018-06-04T08:18:39.729Z,74.61
2018-06-04T08:19:49.547Z,74.9
2018-06-04T08:20:59.640Z,75.04
2018-06-04T08:22:09.735Z,74.93
2018-06-04T08:23:19.307Z,75.04
2018-06-04T08:24:29.398Z,74.64
2018-06-04T08:25:39.489Z,75.13
2018-06-04T08:26:49.583Z,75.17
2018-06-04T08:27:59.704Z,74.48
2018-06-04T08:29:09.531Z,74.19
2018-06-04T08:30:19.443Z,74.58
2018-06-04T08:31:29.026Z,74.62
2018-06-04T08:32:39.149Z,74.32
2018-06-04T08:33:48.964Z,74.32
2018-06-04T08:34:59.072Z,74.62
2018-06-04T08:36:09.255Z,74.81
2018-06-04T08:37:19.338Z,74.62
2018-06-04T08:38:29.564Z,75.11
2018-06-04T08:39:39.741Z,75.56
2018-06-04T08:40:49.817Z,75.56
2018-06-04T08:41:59.924Z,76.01
2018-06-04T08:43:09.748Z,75.72
2018-06-04T08:44:19.569Z,74.74
2018-06-04T08:45:29.670Z,74.38
2018-06-04T08:46:39.868Z,74.81
2018-06-04T08:47:49.998Z,74.65
2018-06-04T08:49:00.086Z,74.16
2018-06-04T08:50:09.908Z,73.87
2018-06-04T08:51:19.744Z,74.1
2018-06-04T08:52:29.875Z,73.65
2018-06-04T08:53:39.694Z,73.94
2018-06-04T08:54:49.803Z,72.9
2018-06-04T08:55:59.622Z,72.74
2018-06-04T08:57:09.450Z,73.92
2018-06-04T08:58:19.561Z,73.39
2018-06-04T08:59:29.397Z,73.13
2018-06-04T09:00:39.506Z,72.78
2018-06-04T09:01:49.341Z,73.07
2018-06-04T09:02:59.463Z,72.88
2018-06-04T09:04:09.564Z,73.46
2018-06-04T09:05:19.399Z,73.56
2018-06-04T09:06:29.474Z,73.92
2018-06-04T09:07:39.307Z,73.72
2018-06-04T09:08:49.396Z,74.05
2018-06-04T09:09:59.573Z,73.66
2018-06-04T09:11:09.668Z,73.27
2018-06-04T09:12:19.489Z,73.66
2018-06-04T09:13:29.310Z,73.75
2018-06-04T09:14:39.404Z,73.56
2018-06-04T09:15:49.701Z,73.85
2018-06-04T09:16:59.575Z,73.66
2018-06-04T09:18:09.670Z,73.75
2018-06-04T09:19:19.749Z,73.99
2018-06-04T09:20:29.914Z,73.4
2018-06-04T09:21:40.062Z,72.91
2018-06-04T09:22:50.304Z,73.04
2018-06-04T09:24:00.390Z,73.44
2018-06-04T09:25:10.194Z,74.02
2018-06-04T09:26:20.288Z,73.73
2018-06-04T09:27:30.364Z,74.02
2018-06-04T09:28:40.184Z,73.93
2018-06-04T09:29:50.279Z,73.93
2018-06-04T09:31:00.348Z,73.93
2018-06-04T09:32:10.449Z,73.83
2018-06-04T09:33:20.649Z,73.93
2018-06-04T09:34:30.268Z,74.12
2018-06-04T09:35:40.103Z,74.52
2018-06-04T09:36:50.178Z,74.42
2018-06-04T09:37:59.752Z,74.48
2018-06-04T09:39:09.847Z,74.22
2018-06-04T09:40:19.988Z,75.2
2018-06-04T09:41:29.829Z,75.16
2018-06-04T09:42:39.958Z,75.52
2018-06-04T09:43:50.061Z,74.54
2018-06-04T09:44:59.928Z,75.16
2018-06-04T09:46:10.079Z,74.58
2018-06-04T09:47:19.890Z,74.77
2018-06-04T09:48:30.122Z,74.38
2018-06-04T09:49:40.223Z,74.52
2018-06-04T09:50:50.322Z,74.06
2018-06-04T09:52:00.205Z,74.26
2018-06-04T09:53:10.302Z,74.26
2018-06-04T09:54:20.413Z,74.26
2018-06-04T09:55:30.266Z,74.75
2018-06-04T09:56:40.356Z,75.85
2018-06-04T09:57:49.927Z,76.21
2018-06-04T09:59:00.025Z,76.86
2018-06-04T10:00:09.902Z,76.82
2018-06-04T10:01:20.013Z,76.98
2018-06-04T10:02:30.133Z,76.78
2018-06-04T10:03:40.210Z,76.59
2018-06-04T10:04:50.207Z,75.65
2018-06-04T10:06:00.304Z,74.6
2018-06-04T10:07:10.420Z,74.64
2018-06-04T10:08:23.297Z,74.52
2018-06-04T10:09:37.370Z,73.38
2018-06-04T10:10:52.278Z,73.21
2018-06-04T10:12:14.808Z,73.5
2018-06-04T10:13:36.923Z,73.25
2018-06-04T10:14:58.526Z,73.44
2018-06-04T10:16:18.431Z,73.19
2018-06-04T10:17:38.062Z,73.74
2018-06-04T10:18:56.798Z,74.98
2018-06-04T10:20:17.079Z,75.44
2018-06-04T10:21:35.325Z,74.42
2018-06-04T10:22:53.404Z,74.85
2018-06-04T10:24:10.381Z,75.37
2018-06-04T10:25:27.209Z,74.87
2018-06-04T10:26:43.059Z,74.68
2018-06-04T10:28:00.112Z,74.62
2018-06-04T10:29:15.331Z,75.07
2018-06-04T10:30:26.432Z,75.26
2018-06-04T10:31:36.764Z,75.62
2018-06-04T10:32:46.628Z,75.98
2018-06-04T10:33:57.186Z,76.07
2018-06-04T10:35:07.317Z,75.78
2018-06-04T10:36:17.406Z,75.59
2018-06-04T10:37:27.482Z,74.54
2018-06-04T10:38:37.333Z,74.44
2018-06-04T10:39:47.465Z,74.29
2018-06-04T10:40:57.307Z,74.42
2018-06-04T10:42:07.418Z,74.26
2018-06-04T10:43:17.523Z,73.86
2018-06-04T10:44:28.768Z,73.9
2018-06-04T10:45:46.234Z,74.19
2018-06-04T10:47:03.425Z,74
2018-06-04T10:48:16.551Z,74.39
2018-06-04T10:49:30.577Z,74.1
2018-06-04T10:50:44.936Z,73.9
2018-06-04T10:51:57.915Z,74.19
2018-06-04T10:53:11.180Z,74.19
2018-06-04T10:54:23.726Z,74.23
2018-06-04T10:55:37.096Z,73.54
2018-06-04T10:56:50.979Z,74.13
2018-06-04T10:58:03.625Z,73.94
2018-06-04T10:59:16.281Z,73.64
2018-06-04T11:00:26.374Z,73.35
2018-06-04T11:01:36.251Z,73.19
2018-06-04T11:02:46.331Z,73.09
2018-06-04T11:03:56.425Z,73.42
2018-06-04T11:05:06.540Z,72.73
2018-06-04T11:06:16.652Z,73.32
2018-06-04T11:07:26.752Z,74.07
2018-06-04T11:08:36.848Z,74.33
2018-06-04T11:09:46.944Z,74.23
2018-06-04T11:10:56.761Z,73.74
2018-06-04T11:12:06.855Z,74.27
2018-06-04T11:13:16.761Z,73.77
2018-06-04T11:14:27.108Z,73.88
2018-06-04T11:15:37.230Z,73.97
2018-06-04T11:16:47.339Z,73.74
2018-06-04T11:17:57.181Z,73.74
2018-06-04T11:19:21.955Z,73.88
2018-06-04T11:20:32.043Z,73.58
2018-06-04T11:21:42.197Z,74.01
2018-06-04T11:22:52.280Z,74.01
2018-06-04T11:24:01.858Z,74.21
2018-06-04T11:25:11.951Z,74.01
2018-06-04T11:26:22.040Z,74.34
2018-06-04T11:27:32.174Z,75.45
2018-06-04T11:28:42.276Z,75.31
2018-06-04T11:29:52.360Z,75.96
2018-06-04T11:31:02.496Z,76.38
2018-06-04T11:32:12.621Z,76.25
2018-06-04T11:33:22.445Z,76.25
2018-06-04T11:34:32.311Z,76.31
2018-06-04T11:35:42.420Z,76.11
2018-06-04T11:36:52.532Z,76.01
2018-06-04T11:38:02.632Z,76.01
2018-06-04T11:39:12.732Z,75.98
2018-06-04T11:40:22.836Z,76.17
2018-06-04T11:41:32.951Z,76.27
2018-06-04T11:42:43.048Z,75.78
2018-06-04T11:43:53.210Z,76.07
2018-06-04T11:45:03.576Z,75.88
2018-06-04T11:46:13.658Z,76.17
2018-06-04T11:47:23.762Z,75.68
2018-06-04T11:48:33.933Z,75.49
2018-06-04T11:49:44.033Z,76.07
2018-06-04T11:50:54.140Z,76.04
2018-06-04T11:52:04.237Z,75.05
2018-06-04T11:53:14.078Z,74.7
2018-06-04T11:54:24.197Z,74.87
2018-06-04T11:55:34.063Z,75.07
2018-06-04T11:56:44.409Z,74.48
2018-06-04T11:57:54.727Z,75.03
2018-06-04T11:59:04.808Z,75.03
2018-06-04T12:00:14.910Z,75.52
2018-06-04T12:01:24.996Z,76.17
2018-06-04T12:02:35.092Z,76.82
2018-06-04T12:03:44.908Z,76.72
2018-06-04T12:04:54.998Z,76.59
2018-06-04T12:06:04.841Z,76.29
2018-06-04T12:07:14.940Z,75.39
2018-06-04T12:08:25.242Z,75.03
2018-06-04T12:09:35.085Z,74.71
2018-06-04T12:10:45.153Z,74.02
2018-06-04T12:11:55.018Z,73.67
2018-06-04T12:13:05.120Z,74.19
2018-06-04T12:14:15.213Z,73.02
2018-06-04T12:15:25.293Z,73.64
2018-06-04T12:16:35.126Z,73.44
2018-06-04T12:17:45.279Z,73.38
2018-06-04T12:18:55.374Z,73.09
2018-06-04T12:20:05.744Z,73.22
2018-06-04T12:21:17.383Z,74.01
2018-06-04T12:22:27.750Z,74.66
2018-06-04T12:23:38.400Z,74.92
2018-06-04T12:24:48.705Z,74.52
2018-06-04T12:25:58.893Z,74.13
2018-06-04T12:27:08.590Z,73.97
2018-06-04T12:28:18.816Z,73.91
2018-06-04T12:29:28.714Z,73.75
2018-06-04T12:30:38.816Z,73.46
2018-06-04T12:31:48.928Z,73.49
2018-06-04T12:32:58.997Z,73.55
2018-06-04T12:34:09.108Z,73.98
2018-06-04T12:35:19.203Z,74.73
2018-06-04T12:36:29.288Z,74.69
2018-06-04T12:37:39.393Z,74.86
2018-06-04T12:38:49.756Z,75.55
2018-06-04T12:39:59.852Z,75.31
2018-06-04T12:41:09.943Z,75.31
2018-06-04T12:42:20.061Z,75.51
2018-06-04T12:43:29.919Z,75.41
2018-06-04T12:44:39.787Z,75.27
2018-06-04T12:45:49.872Z,74.98
2018-06-04T12:47:00.002Z,75.87
2018-06-04T12:48:10.223Z,75.67
2018-06-04T12:49:20.077Z,75.77
2018-06-04T12:50:30.176Z,75.34
2018-06-04T12:51:40.301Z,75.24
2018-06-04T12:52:50.119Z,75.14
2018-06-04T12:54:00.205Z,74.65
2018-06-04T12:55:10.299Z,74.98
2018-06-04T12:56:20.394Z,74.39
2018-06-04T12:57:30.499Z,74.43
2018-06-04T12:58:40.594Z,73.58
2018-06-04T12:59:50.685Z,73.22
2018-06-04T13:01:00.785Z,73.35
2018-06-04T13:02:10.605Z,73.46
2018-06-04T13:03:20.714Z,73.06
2018-06-04T13:04:30.848Z,73.29
2018-06-04T13:05:41.286Z,73.29
2018-06-04T13:06:51.373Z,73.19
2018-06-04T13:08:01.220Z,73.23
2018-06-04T13:09:11.327Z,73.13
2018-06-04T13:10:21.527Z,72.93
2018-06-04T13:11:31.831Z,73.23
2018-06-04T13:12:41.677Z,73.33
2018-06-04T13:13:51.782Z,73.23
2018-06-04T13:15:01.861Z,73.36
2018-06-04T13:16:11.984Z,72.47
2018-06-04T13:17:22.103Z,72.87
2018-06-04T13:18:31.919Z,73.27
2018-06-04T13:19:42.011Z,73.66
2018-06-04T13:20:52.105Z,73.07
2018-06-04T13:22:02.252Z,73.07
2018-06-04T13:23:12.357Z,73.56
2018-06-04T13:24:22.445Z,73.86
2018-06-04T13:25:32.292Z,73.16
2018-06-04T13:26:42.378Z,73.27
2018-06-04T13:27:52.196Z,73.75
2018-06-04T13:29:02.298Z,73.27
2018-06-04T13:30:12.123Z,74.15
2018-06-04T13:31:22.196Z,74.02
2018-06-04T13:32:32.310Z,73.75
2018-06-04T13:33:42.466Z,74.41
2018-06-04T13:34:52.604Z,75.07
2018-06-04T13:36:02.685Z,75.52
2018-06-04T13:37:12.772Z,75.42
2018-06-04T13:38:22.641Z,74.93
2018-06-04T13:39:33.021Z,74.97
2018-06-04T13:40:43.126Z,74.87
2018-06-04T13:41:53.196Z,75.23
2018-06-04T13:43:03.342Z,75.42
2018-06-04T13:44:13.435Z,75.68
2018-06-04T13:45:23.260Z,75.35
2018-06-04T13:46:32.829Z,75.45
2018-06-04T13:47:43.156Z,75.65
2018-06-04T13:48:53.250Z,75.84
2018-06-04T13:50:03.339Z,75.84
2018-06-04T13:51:13.433Z,75.45
2018-06-04T13:52:23.253Z,75.55
2018-06-04T13:53:33.349Z,75.35
2018-06-04T13:54:43.440Z,75.29
2018-06-04T13:55:53.257Z,74.83
2018-06-04T13:57:03.340Z,74.24
2018-06-04T13:58:13.451Z,73.88
2018-06-04T13:59:23.561Z,74.21
2018-06-04T14:00:33.405Z,73.52
2018-06-04T14:01:43.519Z,73.75
2018-06-04T14:02:53.394Z,73.56
2018-06-04T14:04:02.966Z,74.02
2018-06-04T14:05:13.047Z,73.92
2018-06-04T14:06:23.133Z,73.92
2018-06-04T14:07:33.254Z,74.38
2018-06-04T14:08:43.382Z,74.57
2018-06-04T14:09:53.562Z,75.03
2018-06-04T14:11:03.440Z,75.42
2018-06-04T14:12:13.286Z,74.9
2018-06-04T14:13:23.388Z,75.09
2018-06-04T14:14:33.018Z,74.69
2018-06-04T14:15:43.148Z,74.8
2018-06-04T14:16:53.234Z,74.93
2018-06-04T14:18:03.329Z,75.19
2018-06-04T14:19:13.150Z,74.8
2018-06-04T14:20:23.248Z,75.19
2018-06-04T14:21:33.060Z,75.29
2018-06-04T14:22:43.161Z,75.09
2018-06-04T14:23:53.299Z,74.69
2018-06-04T14:25:03.111Z,74.83
2018-06-04T14:26:12.974Z,74.93
2018-06-04T14:27:23.080Z,75.62
2018-06-04T14:28:33.325Z,75.19
2018-06-04T14:29:43.433Z,75.59
2018-06-04T14:30:53.264Z,75.35
2018-06-04T14:32:03.150Z,75.35
2018-06-04T14:33:13.235Z,75.81
2018-06-04T14:34:23.377Z,75.12
2018-06-04T14:35:33.470Z,75.31
2018-06-04T14:36:43.329Z,75.31
2018-06-04T14:37:53.428Z,75.41
2018-06-04T14:39:03.305Z,75.12
2018-06-04T14:40:13.360Z,74.73
2018-06-04T14:41:23.469Z,75.21
2018-06-04T14:42:33.587Z,75.41
2018-06-04T14:43:43.668Z,74.98
2018-06-04T14:44:53.749Z,75.96
2018-06-04T14:46:03.835Z,75.87
2018-06-04T14:47:13.932Z,75.77
2018-06-04T14:48:24.038Z,75.73
2018-06-04T14:49:34.289Z,75.34
2018-06-04T14:50:44.543Z,75.27
2018-06-04T14:51:54.623Z,75.44
2018-06-04T14:53:04.753Z,75.44
2018-06-04T14:54:14.846Z,75.14
2018-06-04T14:55:24.967Z,75.73
2018-06-04T14:56:34.862Z,75.73
2018-06-04T14:57:44.890Z,75.99
2018-06-04T14:58:55.004Z,75.89
2018-06-04T15:00:04.838Z,76.15
2018-06-04T15:01:14.747Z,75.95
2018-06-04T15:02:24.825Z,76.11
2018-06-04T15:03:34.674Z,76.34
2018-06-04T15:04:44.759Z,76.21
2018-06-04T15:05:54.857Z,76.4
2018-06-04T15:07:04.680Z,76.31
2018-06-04T15:08:14.777Z,76.11
2018-06-04T15:09:24.918Z,76.01
2018-06-04T15:10:35.008Z,76.01
2018-06-04T15:11:44.590Z,76.21
2018-06-04T15:12:54.687Z,76.31
2018-06-04T15:14:04.794Z,76.07
2018-06-04T15:15:14.729Z,76.17
2018-06-04T15:16:24.989Z,76.07
2018-06-04T15:17:35.304Z,75.98
2018-06-04T15:18:45.396Z,75.88
2018-06-04T15:19:55.486Z,75.98
2018-06-04T15:21:05.561Z,76.07
2018-06-04T15:22:15.630Z,76.04
2018-06-04T15:23:25.730Z,76.14
2018-06-04T15:24:35.550Z,75.84
2018-06-04T15:25:45.654Z,75.94
2018-06-04T15:26:55.737Z,76.04
2018-06-04T15:28:05.829Z,76.14
2018-06-04T15:29:15.686Z,76.04
2018-06-04T15:30:25.537Z,76.33
2018-06-04T15:31:35.630Z,75.74
2018-06-04T15:32:45.777Z,76.04
2018-06-04T15:33:55.865Z,75.68
2018-06-04T15:35:05.978Z,75.98
2018-06-04T15:36:16.078Z,76.07
2018-06-04T15:37:26.177Z,75.39
2018-06-04T15:38:36.344Z,75.59
2018-06-04T15:39:46.452Z,75.39